sensor_id;sensor_type;location;lat;lon;timestamp;P1;durP1;ratioP1;P2;durP2;ratioP2
77022;SDS011;65952;51.440;-2.054;2023-05-24T00:01:56;8.13;;;4.45;;
77022;SDS011;65952;51.440;-2.054;2023-05-24T00:04:21;13.52;;;5.20;;
77022;SDS011;65952;51.440;-2.054;2023-05-24T00:06:49;10.52;;;5.03;;
77022;SDS011;65952;51.440;-2.054;2023-05-24T00:09:15;9.52;;;4.57;;
77022;SDS011;65952;51.440;-2.054;2023-05-24T00:11:40;11.05;;;4.93;;
77022;SDS011;65952;51.440;-2.054;2023-05-24T00:14:05;9.63;;;4.55;;
77022;SDS011;65952;51.440;-2.054;2023-05-24T00:16:31;10.18;;;4.80;;
77022;SDS011;65952;51.440;-2.054;2023-05-24T00:18:56;8.73;;;4.30;;
77022;SDS011;65952;51.440;-2.054;2023-05-24T00:21:23;10.57;;;5.18;;
77022;SDS011;65952;51.440;-2.054;2023-05-24T00:23:48;10.82;;;4.57;;
77022;SDS011;65952;51.440;-2.054;2023-05-24T00:26:16;11.00;;;5.60;;
77022;SDS011;65952;51.440;-2.054;2023-05-24T00:28:41;13.52;;;5.70;;
77022;SDS011;65952;51.440;-2.054;2023-05-24T00:34:28;9.50;;;4.70;;
77022;SDS011;65952;51.440;-2.054;2023-05-24T00:36:54;10.60;;;4.88;;
77022;SDS011;65952;51.440;-2.054;2023-05-24T00:39:21;10.27;;;4.68;;
77022;SDS011;65952;51.440;-2.054;2023-05-24T00:41:46;10.20;;;4.75;;
77022;SDS011;65952;51.440;-2.054;2023-05-24T00:44:12;8.80;;;5.05;;
77022;SDS011;65952;51.440;-2.054;2023-05-24T00:46:37;11.85;;;4.93;;
77022;SDS011;65952;51.440;-2.054;2023-05-24T00:49:03;9.20;;;5.22;;
77022;SDS011;65952;51.440;-2.054;2023-05-24T00:51:29;13.32;;;5.15;;
77022;SDS011;65952;51.440;-2.054;2023-05-24T00:53:56;9.52;;;5.43;;
77022;SDS011;65952;51.440;-2.054;2023-05-24T00:56:22;12.77;;;6.00;;
77022;SDS011;65952;51.440;-2.054;2023-05-24T00:58:48;9.70;;;5.88;;
77022;SDS011;65952;51.440;-2.054;2023-05-24T01:01:18;14.45;;;6.43;;
77022;SDS011;65952;51.440;-2.054;2023-05-24T01:03:43;10.77;;;5.80;;
77022;SDS011;65952;51.440;-2.054;2023-05-24T01:06:10;10.82;;;5.30;;
77022;SDS011;65952;51.440;-2.054;2023-05-24T01:14:25;10.52;;;5.63;;
77022;SDS011;65952;51.440;-2.054;2023-05-24T01:22:06;14.50;;;5.47;;
77022;SDS011;65952;51.440;-2.054;2023-05-24T01:27:33;14.70;;;5.88;;
77022;SDS011;65952;51.440;-2.054;2023-05-24T01:30:01;11.25;;;5.13;;
77022;SDS011;65952;51.440;-2.054;2023-05-24T01:32:28;13.77;;;6.13;;
77022;SDS011;65952;51.440;-2.054;2023-05-24T01:34:54;9.95;;;5.05;;
77022;SDS011;65952;51.440;-2.054;2023-05-24T01:37:20;11.60;;;4.43;;
77022;SDS011;65952;51.440;-2.054;2023-05-24T01:39:45;11.48;;;4.70;;
77022;SDS011;65952;51.440;-2.054;2023-05-24T01:45:07;10.55;;;4.80;;
77022;SDS011;65952;51.440;-2.054;2023-05-24T01:47:38;9.38;;;4.50;;
77022;SDS011;65952;51.440;-2.054;2023-05-24T01:52:50;10.75;;;3.95;;
77022;SDS011;65952;51.440;-2.054;2023-05-24T01:55:16;10.90;;;4.65;;
77022;SDS011;65952;51.440;-2.054;2023-05-24T01:57:42;8.63;;;4.20;;
77022;SDS011;65952;51.440;-2.054;2023-05-24T02:00:10;10.60;;;4.45;;
77022;SDS011;65952;51.440;-2.054;2023-05-24T02:02:38;11.65;;;4.88;;
77022;SDS011;65952;51.440;-2.054;2023-05-24T02:05:04;6.78;;;4.30;;
77022;SDS011;65952;51.440;-2.054;2023-05-24T02:07:30;13.05;;;5.13;;
77022;SDS011;65952;51.440;-2.054;2023-05-24T02:09:55;10.50;;;4.47;;
77022;SDS011;65952;51.440;-2.054;2023-05-24T02:12:21;10.68;;;4.40;;
77022;SDS011;65952;51.440;-2.054;2023-05-24T02:14:46;12.05;;;4.30;;
77022;SDS011;65952;51.440;-2.054;2023-05-24T02:17:15;8.30;;;4.18;;
77022;SDS011;65952;51.440;-2.054;2023-05-24T02:19:41;10.90;;;4.47;;
77022;SDS011;65952;51.440;-2.054;2023-05-24T02:22:07;8.88;;;4.30;;
77022;SDS011;65952;51.440;-2.054;2023-05-24T02:24:33;10.80;;;4.63;;
77022;SDS011;65952;51.440;-2.054;2023-05-24T02:26:58;10.00;;;4.90;;
77022;SDS011;65952;51.440;-2.054;2023-05-24T02:29:24;10.75;;;4.53;;
77022;SDS011;65952;51.440;-2.054;2023-05-24T02:31:49;9.30;;;5.03;;
77022;SDS011;65952;51.440;-2.054;2023-05-24T02:34:20;10.85;;;4.97;;
77022;SDS011;65952;51.440;-2.054;2023-05-24T02:36:47;10.05;;;4.60;;
77022;SDS011;65952;51.440;-2.054;2023-05-24T02:39:13;8.57;;;4.28;;
77022;SDS011;65952;51.440;-2.054;2023-05-24T02:41:38;10.43;;;4.60;;
77022;SDS011;65952;51.440;-2.054;2023-05-24T02:44:04;13.35;;;4.40;;
77022;SDS011;65952;51.440;-2.054;2023-05-24T02:46:29;9.82;;;4.55;;
77022;SDS011;65952;51.440;-2.054;2023-05-24T02:48:54;11.57;;;4.35;;
77022;SDS011;65952;51.440;-2.054;2023-05-24T02:51:20;10.27;;;4.55;;
77022;SDS011;65952;51.440;-2.054;2023-05-24T02:53:45;11.23;;;4.22;;
77022;SDS011;65952;51.440;-2.054;2023-05-24T02:56:11;10.85;;;3.83;;
77022;SDS011;65952;51.440;-2.054;2023-05-24T02:58:37;8.00;;;4.15;;
77022;SDS011;65952;51.440;-2.054;2023-05-24T03:01:05;10.88;;;4.15;;
77022;SDS011;65952;51.440;-2.054;2023-05-24T03:03:32;9.40;;;4.13;;
77022;SDS011;65952;51.440;-2.054;2023-05-24T03:05:57;10.77;;;4.40;;
77022;SDS011;65952;51.440;-2.054;2023-05-24T03:08:23;9.27;;;4.40;;
77022;SDS011;65952;51.440;-2.054;2023-05-24T03:10:48;10.35;;;4.13;;
77022;SDS011;65952;51.440;-2.054;2023-05-24T03:13:14;11.20;;;3.97;;
77022;SDS011;65952;51.440;-2.054;2023-05-24T03:15:39;9.00;;;4.10;;
77022;SDS011;65952;51.440;-2.054;2023-05-24T03:18:04;10.63;;;4.75;;
77022;SDS011;65952;51.440;-2.054;2023-05-24T03:20:30;8.65;;;4.05;;
77022;SDS011;65952;51.440;-2.054;2023-05-24T03:22:55;11.73;;;4.45;;
77022;SDS011;65952;51.440;-2.054;2023-05-24T03:25:21;10.38;;;4.70;;
77022;SDS011;65952;51.440;-2.054;2023-05-24T03:27:46;11.88;;;4.28;;
77022;SDS011;65952;51.440;-2.054;2023-05-24T03:30:12;9.95;;;4.00;;
77022;SDS011;65952;51.440;-2.054;2023-05-24T03:32:37;10.15;;;4.05;;
77022;SDS011;65952;51.440;-2.054;2023-05-24T03:35:03;11.95;;;4.93;;
77022;SDS011;65952;51.440;-2.054;2023-05-24T03:37:28;10.68;;;4.07;;
77022;SDS011;65952;51.440;-2.054;2023-05-24T03:39:54;8.15;;;4.20;;
77022;SDS011;65952;51.440;-2.054;2023-05-24T03:42:19;12.95;;;4.78;;
77022;SDS011;65952;51.440;-2.054;2023-05-24T03:44:46;10.43;;;4.55;;
77022;SDS011;65952;51.440;-2.054;2023-05-24T03:47:14;11.20;;;4.32;;
77022;SDS011;65952;51.440;-2.054;2023-05-24T03:49:40;11.75;;;4.68;;
77022;SDS011;65952;51.440;-2.054;2023-05-24T03:52:05;10.00;;;4.40;;
77022;SDS011;65952;51.440;-2.054;2023-05-24T03:54:30;11.38;;;4.60;;
77022;SDS011;65952;51.440;-2.054;2023-05-24T03:56:56;11.38;;;5.20;;
77022;SDS011;65952;51.440;-2.054;2023-05-24T03:59:21;10.90;;;4.57;;
77022;SDS011;65952;51.440;-2.054;2023-05-24T04:01:47;9.65;;;4.85;;
77022;SDS011;65952;51.440;-2.054;2023-05-24T04:04:12;10.20;;;5.00;;
77022;SDS011;65952;51.440;-2.054;2023-05-24T04:06:38;9.85;;;4.88;;
77022;SDS011;65952;51.440;-2.054;2023-05-24T04:09:05;12.48;;;5.05;;
77022;SDS011;65952;51.440;-2.054;2023-05-24T04:11:31;10.88;;;5.03;;
77022;SDS011;65952;51.440;-2.054;2023-05-24T04:13:57;13.68;;;4.85;;
77022;SDS011;65952;51.440;-2.054;2023-05-24T04:16:26;9.07;;;4.70;;
77022;SDS011;65952;51.440;-2.054;2023-05-24T04:18:55;10.35;;;4.70;;
77022;SDS011;65952;51.440;-2.054;2023-05-24T04:21:20;12.13;;;4.88;;
77022;SDS011;65952;51.440;-2.054;2023-05-24T04:23:46;10.70;;;4.57;;
77022;SDS011;65952;51.440;-2.054;2023-05-24T04:26:12;11.93;;;4.20;;
77022;SDS011;65952;51.440;-2.054;2023-05-24T04:28:38;12.55;;;4.20;;
77022;SDS011;65952;51.440;-2.054;2023-05-24T04:31:04;9.25;;;4.10;;
77022;SDS011;65952;51.440;-2.054;2023-05-24T04:33:30;10.15;;;3.90;;
77022;SDS011;65952;51.440;-2.054;2023-05-24T04:35:58;11.35;;;4.05;;
77022;SDS011;65952;51.440;-2.054;2023-05-24T04:38:27;10.80;;;3.88;;
77022;SDS011;65952;51.440;-2.054;2023-05-24T04:40:58;9.55;;;3.35;;
77022;SDS011;65952;51.440;-2.054;2023-05-24T04:43:24;9.50;;;3.72;;
77022;SDS011;65952;51.440;-2.054;2023-05-24T04:45:55;12.32;;;3.72;;
77022;SDS011;65952;51.440;-2.054;2023-05-24T04:48:21;10.05;;;4.20;;
77022;SDS011;65952;51.440;-2.054;2023-05-24T04:50:51;10.70;;;3.80;;
77022;SDS011;65952;51.440;-2.054;2023-05-24T04:53:18;9.18;;;3.33;;
77022;SDS011;65952;51.440;-2.054;2023-05-24T04:55:44;9.95;;;3.88;;
77022;SDS011;65952;51.440;-2.054;2023-05-24T04:58:09;10.23;;;3.60;;
77022;SDS011;65952;51.440;-2.054;2023-05-24T05:00:34;8.40;;;4.00;;
77022;SDS011;65952;51.440;-2.054;2023-05-24T05:03:00;13.32;;;3.60;;
77022;SDS011;65952;51.440;-2.054;2023-05-24T05:05:26;9.80;;;3.42;;
77022;SDS011;65952;51.440;-2.054;2023-05-24T05:07:51;14.02;;;4.13;;
77022;SDS011;65952;51.440;-2.054;2023-05-24T05:10:16;10.77;;;3.92;;
77022;SDS011;65952;51.440;-2.054;2023-05-24T05:12:42;8.43;;;3.10;;
77022;SDS011;65952;51.440;-2.054;2023-05-24T05:15:08;11.10;;;3.85;;
77022;SDS011;65952;51.440;-2.054;2023-05-24T05:17:34;17.38;;;4.22;;
77022;SDS011;65952;51.440;-2.054;2023-05-24T05:20:00;14.18;;;4.60;;
77022;SDS011;65952;51.440;-2.054;2023-05-24T05:22:26;13.57;;;3.40;;
77022;SDS011;65952;51.440;-2.054;2023-05-24T05:24:51;10.98;;;3.90;;
77022;SDS011;65952;51.440;-2.054;2023-05-24T05:27:17;12.20;;;4.40;;
77022;SDS011;65952;51.440;-2.054;2023-05-24T05:29:42;16.70;;;4.13;;
77022;SDS011;65952;51.440;-2.054;2023-05-24T05:32:08;12.63;;;3.83;;
77022;SDS011;65952;51.440;-2.054;2023-05-24T05:34:33;14.27;;;3.85;;
77022;SDS011;65952;51.440;-2.054;2023-05-24T05:36:59;10.85;;;3.53;;
77022;SDS011;65952;51.440;-2.054;2023-05-24T05:39:24;11.02;;;3.65;;
77022;SDS011;65952;51.440;-2.054;2023-05-24T05:41:50;13.10;;;4.20;;
77022;SDS011;65952;51.440;-2.054;2023-05-24T05:44:15;10.82;;;4.05;;
77022;SDS011;65952;51.440;-2.054;2023-05-24T05:46:40;9.15;;;3.58;;
77022;SDS011;65952;51.440;-2.054;2023-05-24T05:49:08;9.90;;;3.30;;
77022;SDS011;65952;51.440;-2.054;2023-05-24T05:51:34;11.07;;;3.55;;
77022;SDS011;65952;51.440;-2.054;2023-05-24T05:54:00;10.48;;;3.67;;
77022;SDS011;65952;51.440;-2.054;2023-05-24T05:56:25;6.95;;;3.33;;
77022;SDS011;65952;51.440;-2.054;2023-05-24T05:58:51;10.40;;;3.40;;
77022;SDS011;65952;51.440;-2.054;2023-05-24T06:01:17;11.88;;;3.85;;
77022;SDS011;65952;51.440;-2.054;2023-05-24T06:03:42;8.30;;;3.28;;
77022;SDS011;65952;51.440;-2.054;2023-05-24T06:06:08;9.68;;;3.72;;
77022;SDS011;65952;51.440;-2.054;2023-05-24T06:08:33;11.82;;;4.10;;
77022;SDS011;65952;51.440;-2.054;2023-05-24T06:10:59;10.27;;;3.70;;
77022;SDS011;65952;51.440;-2.054;2023-05-24T06:13:25;15.07;;;3.78;;
77022;SDS011;65952;51.440;-2.054;2023-05-24T06:15:52;8.52;;;3.50;;
77022;SDS011;65952;51.440;-2.054;2023-05-24T06:18:18;8.43;;;3.40;;
77022;SDS011;65952;51.440;-2.054;2023-05-24T06:20:45;9.70;;;3.72;;
77022;SDS011;65952;51.440;-2.054;2023-05-24T06:23:10;11.38;;;3.60;;
77022;SDS011;65952;51.440;-2.054;2023-05-24T06:25:36;8.18;;;3.15;;
77022;SDS011;65952;51.440;-2.054;2023-05-24T06:28:02;8.38;;;3.03;;
77022;SDS011;65952;51.440;-2.054;2023-05-24T06:30:28;9.35;;;3.22;;
77022;SDS011;65952;51.440;-2.054;2023-05-24T06:32:53;11.40;;;3.20;;
77022;SDS011;65952;51.440;-2.054;2023-05-24T06:35:20;7.55;;;3.42;;
77022;SDS011;65952;51.440;-2.054;2023-05-24T06:37:45;8.00;;;3.20;;
77022;SDS011;65952;51.440;-2.054;2023-05-24T06:40:11;7.32;;;2.97;;
77022;SDS011;65952;51.440;-2.054;2023-05-24T06:42:37;8.52;;;3.20;;
77022;SDS011;65952;51.440;-2.054;2023-05-24T06:45:03;10.63;;;3.00;;
77022;SDS011;65952;51.440;-2.054;2023-05-24T06:47:29;6.63;;;2.83;;
77022;SDS011;65952;51.440;-2.054;2023-05-24T06:49:54;6.50;;;3.20;;
77022;SDS011;65952;51.440;-2.054;2023-05-24T06:52:20;10.05;;;2.92;;
77022;SDS011;65952;51.440;-2.054;2023-05-24T06:54:46;11.38;;;3.35;;
77022;SDS011;65952;51.440;-2.054;2023-05-24T06:57:12;9.00;;;3.67;;
77022;SDS011;65952;51.440;-2.054;2023-05-24T06:59:37;8.55;;;3.30;;
77022;SDS011;65952;51.440;-2.054;2023-05-24T07:02:03;9.45;;;3.20;;
77022;SDS011;65952;51.440;-2.054;2023-05-24T07:04:28;12.90;;;3.20;;
77022;SDS011;65952;51.440;-2.054;2023-05-24T07:06:53;8.18;;;3.47;;
77022;SDS011;65952;51.440;-2.054;2023-05-24T07:09:19;9.05;;;3.35;;
77022;SDS011;65952;51.440;-2.054;2023-05-24T07:11:44;9.70;;;3.50;;
77022;SDS011;65952;51.440;-2.054;2023-05-24T07:14:10;11.68;;;3.42;;
77022;SDS011;65952;51.440;-2.054;2023-05-24T07:16:35;10.57;;;3.35;;
77022;SDS011;65952;51.440;-2.054;2023-05-24T07:19:01;7.75;;;3.47;;
77022;SDS011;65952;51.440;-2.054;2023-05-24T07:21:26;8.52;;;3.80;;
77022;SDS011;65952;51.440;-2.054;2023-05-24T07:23:52;9.10;;;3.60;;
77022;SDS011;65952;51.440;-2.054;2023-05-24T07:26:17;6.78;;;3.30;;
77022;SDS011;65952;51.440;-2.054;2023-05-24T07:28:43;9.30;;;3.00;;
77022;SDS011;65952;51.440;-2.054;2023-05-24T07:31:08;7.47;;;2.90;;
77022;SDS011;65952;51.440;-2.054;2023-05-24T07:33:37;8.65;;;3.50;;
77022;SDS011;65952;51.440;-2.054;2023-05-24T07:36:05;9.15;;;3.35;;
77022;SDS011;65952;51.440;-2.054;2023-05-24T07:41:09;7.60;;;3.55;;
77022;SDS011;65952;51.440;-2.054;2023-05-24T07:43:37;11.75;;;3.30;;
77022;SDS011;65952;51.440;-2.054;2023-05-24T07:46:03;8.30;;;3.30;;
77022;SDS011;65952;51.440;-2.054;2023-05-24T07:48:28;9.55;;;3.42;;
77022;SDS011;65952;51.440;-2.054;2023-05-24T07:50:54;8.27;;;3.55;;
77022;SDS011;65952;51.440;-2.054;2023-05-24T07:53:20;7.45;;;3.92;;
77022;SDS011;65952;51.440;-2.054;2023-05-24T07:55:46;9.48;;;3.47;;
77022;SDS011;65952;51.440;-2.054;2023-05-24T07:58:12;13.40;;;3.60;;
77022;SDS011;65952;51.440;-2.054;2023-05-24T08:00:37;16.35;;;4.55;;
77022;SDS011;65952;51.440;-2.054;2023-05-24T08:03:03;9.48;;;3.47;;
77022;SDS011;65952;51.440;-2.054;2023-05-24T08:05:31;13.95;;;3.83;;
77022;SDS011;65952;51.440;-2.054;2023-05-24T08:07:56;8.23;;;3.00;;
77022;SDS011;65952;51.440;-2.054;2023-05-24T08:10:22;9.30;;;3.17;;
77022;SDS011;65952;51.440;-2.054;2023-05-24T08:12:49;8.38;;;3.40;;
77022;SDS011;65952;51.440;-2.054;2023-05-24T08:15:15;8.68;;;3.45;;
77022;SDS011;65952;51.440;-2.054;2023-05-24T08:17:41;7.28;;;2.97;;
77022;SDS011;65952;51.440;-2.054;2023-05-24T08:20:07;8.60;;;3.45;;
77022;SDS011;65952;51.440;-2.054;2023-05-24T08:22:33;8.88;;;3.15;;
77022;SDS011;65952;51.440;-2.054;2023-05-24T08:24:59;9.25;;;3.55;;
77022;SDS011;65952;51.440;-2.054;2023-05-24T08:27:25;12.40;;;3.75;;
77022;SDS011;65952;51.440;-2.054;2023-05-24T08:29:54;6.90;;;3.50;;
77022;SDS011;65952;51.440;-2.054;2023-05-24T08:32:20;10.23;;;3.67;;
77022;SDS011;65952;51.440;-2.054;2023-05-24T08:34:45;9.00;;;3.30;;
77022;SDS011;65952;51.440;-2.054;2023-05-24T08:37:10;7.05;;;3.38;;
77022;SDS011;65952;51.440;-2.054;2023-05-24T08:39:37;7.30;;;3.58;;
77022;SDS011;65952;51.440;-2.054;2023-05-24T08:42:02;7.90;;;3.50;;
77022;SDS011;65952;51.440;-2.054;2023-05-24T08:44:31;9.23;;;3.45;;
77022;SDS011;65952;51.440;-2.054;2023-05-24T08:47:06;10.10;;;3.60;;
77022;SDS011;65952;51.440;-2.054;2023-05-24T08:49:32;7.60;;;3.55;;
77022;SDS011;65952;51.440;-2.054;2023-05-24T08:51:58;8.40;;;3.55;;
77022;SDS011;65952;51.440;-2.054;2023-05-24T08:54:25;6.80;;;3.30;;
77022;SDS011;65952;51.440;-2.054;2023-05-24T08:56:51;8.75;;;3.78;;
77022;SDS011;65952;51.440;-2.054;2023-05-24T08:59:16;7.45;;;3.30;;
77022;SDS011;65952;51.440;-2.054;2023-05-24T09:01:42;8.90;;;3.60;;
77022;SDS011;65952;51.440;-2.054;2023-05-24T09:04:08;8.73;;;3.72;;
77022;SDS011;65952;51.440;-2.054;2023-05-24T09:06:34;12.15;;;3.90;;
77022;SDS011;65952;51.440;-2.054;2023-05-24T09:09:01;8.50;;;3.60;;
77022;SDS011;65952;51.440;-2.054;2023-05-24T09:11:27;5.78;;;3.30;;
77022;SDS011;65952;51.440;-2.054;2023-05-24T09:13:55;7.82;;;3.75;;
77022;SDS011;65952;51.440;-2.054;2023-05-24T09:16:21;9.38;;;4.03;;
77022;SDS011;65952;51.440;-2.054;2023-05-24T09:18:47;9.27;;;4.15;;
77022;SDS011;65952;51.440;-2.054;2023-05-24T09:21:12;10.07;;;3.97;;
77022;SDS011;65952;51.440;-2.054;2023-05-24T09:23:38;7.47;;;3.78;;
77022;SDS011;65952;51.440;-2.054;2023-05-24T09:26:08;8.38;;;3.40;;
77022;SDS011;65952;51.440;-2.054;2023-05-24T09:28:35;8.23;;;3.70;;
77022;SDS011;65952;51.440;-2.054;2023-05-24T09:31:01;8.05;;;3.53;;
77022;SDS011;65952;51.440;-2.054;2023-05-24T09:33:31;8.90;;;4.20;;
77022;SDS011;65952;51.440;-2.054;2023-05-24T09:35:58;10.18;;;3.60;;
77022;SDS011;65952;51.440;-2.054;2023-05-24T09:38:25;12.70;;;3.90;;
77022;SDS011;65952;51.440;-2.054;2023-05-24T09:41:01;8.77;;;3.95;;
77022;SDS011;65952;51.440;-2.054;2023-05-24T09:43:31;9.52;;;3.67;;
77022;SDS011;65952;51.440;-2.054;2023-05-24T09:45:59;8.18;;;3.72;;
77022;SDS011;65952;51.440;-2.054;2023-05-24T09:48:27;8.15;;;3.17;;
77022;SDS011;65952;51.440;-2.054;2023-05-24T09:50:58;10.77;;;3.67;;
77022;SDS011;65952;51.440;-2.054;2023-05-24T09:53:25;8.13;;;3.85;;
77022;SDS011;65952;51.440;-2.054;2023-05-24T09:55:50;10.25;;;4.03;;
77022;SDS011;65952;51.440;-2.054;2023-05-24T09:58:18;7.13;;;3.75;;
77022;SDS011;65952;51.440;-2.054;2023-05-24T10:00:44;8.38;;;3.80;;
77022;SDS011;65952;51.440;-2.054;2023-05-24T10:03:10;9.25;;;3.97;;
77022;SDS011;65952;51.440;-2.054;2023-05-24T10:05:37;8.75;;;4.00;;
77022;SDS011;65952;51.440;-2.054;2023-05-24T10:08:06;7.68;;;3.70;;
77022;SDS011;65952;51.440;-2.054;2023-05-24T10:10:33;7.95;;;3.78;;
77022;SDS011;65952;51.440;-2.054;2023-05-24T10:13:00;10.43;;;4.13;;
77022;SDS011;65952;51.440;-2.054;2023-05-24T10:15:26;8.30;;;3.97;;
77022;SDS011;65952;51.440;-2.054;2023-05-24T10:17:55;7.45;;;3.55;;
77022;SDS011;65952;51.440;-2.054;2023-05-24T10:20:22;9.82;;;4.20;;
77022;SDS011;65952;51.440;-2.054;2023-05-24T10:22:50;12.80;;;4.10;;
77022;SDS011;65952;51.440;-2.054;2023-05-24T10:25:21;8.43;;;3.95;;
77022;SDS011;65952;51.440;-2.054;2023-05-24T10:27:50;8.43;;;4.32;;
77022;SDS011;65952;51.440;-2.054;2023-05-24T10:33:20;10.32;;;4.40;;
77022;SDS011;65952;51.440;-2.054;2023-05-24T10:35:47;8.50;;;4.10;;
77022;SDS011;65952;51.440;-2.054;2023-05-24T10:38:13;11.48;;;4.25;;
77022;SDS011;65952;51.440;-2.054;2023-05-24T10:40:41;10.45;;;4.72;;
77022;SDS011;65952;51.440;-2.054;2023-05-24T10:43:07;12.80;;;4.63;;
77022;SDS011;65952;51.440;-2.054;2023-05-24T10:45:40;11.50;;;3.85;;
77022;SDS011;65952;51.440;-2.054;2023-05-24T10:50:37;8.00;;;3.70;;
77022;SDS011;65952;51.440;-2.054;2023-05-24T10:53:16;9.52;;;3.90;;
77022;SDS011;65952;51.440;-2.054;2023-05-24T10:58:17;11.55;;;4.28;;
77022;SDS011;65952;51.440;-2.054;2023-05-24T11:00:43;8.93;;;4.53;;
77022;SDS011;65952;51.440;-2.054;2023-05-24T11:03:09;7.40;;;3.70;;
77022;SDS011;65952;51.440;-2.054;2023-05-24T11:05:54;7.85;;;3.67;;
77022;SDS011;65952;51.440;-2.054;2023-05-24T11:08:39;9.63;;;4.40;;
77022;SDS011;65952;51.440;-2.054;2023-05-24T11:13:37;8.43;;;4.18;;
77022;SDS011;65952;51.440;-2.054;2023-05-24T11:16:04;8.00;;;4.15;;
77022;SDS011;65952;51.440;-2.054;2023-05-24T11:18:30;11.48;;;4.00;;
77022;SDS011;65952;51.440;-2.054;2023-05-24T11:20:58;8.68;;;4.00;;
77022;SDS011;65952;51.440;-2.054;2023-05-24T11:23:25;8.95;;;3.85;;
77022;SDS011;65952;51.440;-2.054;2023-05-24T11:25:51;9.65;;;3.42;;
77022;SDS011;65952;51.440;-2.054;2023-05-24T11:28:17;9.30;;;3.95;;
77022;SDS011;65952;51.440;-2.054;2023-05-24T11:30:43;8.77;;;3.38;;
77022;SDS011;65952;51.440;-2.054;2023-05-24T11:35:39;9.30;;;3.80;;
77022;SDS011;65952;51.440;-2.054;2023-05-24T11:38:08;9.45;;;4.20;;
77022;SDS011;65952;51.440;-2.054;2023-05-24T11:40:35;11.00;;;4.33;;
77022;SDS011;65952;51.440;-2.054;2023-05-24T11:43:04;10.63;;;3.97;;
77022;SDS011;65952;51.440;-2.054;2023-05-24T11:45:30;7.75;;;4.10;;
77022;SDS011;65952;51.440;-2.054;2023-05-24T11:47:56;10.07;;;4.07;;
77022;SDS011;65952;51.440;-2.054;2023-05-24T11:50:24;8.82;;;3.58;;
77022;SDS011;65952;51.440;-2.054;2023-05-24T11:52:50;8.32;;;3.88;;
77022;SDS011;65952;51.440;-2.054;2023-05-24T11:55:22;7.47;;;3.25;;
77022;SDS011;65952;51.440;-2.054;2023-05-24T11:57:57;9.52;;;3.95;;
77022;SDS011;65952;51.440;-2.054;2023-05-24T12:00:24;9.82;;;3.47;;
77022;SDS011;65952;51.440;-2.054;2023-05-24T12:02:50;10.20;;;3.97;;
77022;SDS011;65952;51.440;-2.054;2023-05-24T12:05:17;9.25;;;3.80;;
77022;SDS011;65952;51.440;-2.054;2023-05-24T12:07:43;6.00;;;3.15;;
77022;SDS011;65952;51.440;-2.054;2023-05-24T12:10:13;11.20;;;3.88;;
77022;SDS011;65952;51.440;-2.054;2023-05-24T12:12:43;7.20;;;3.38;;
77022;SDS011;65952;51.440;-2.054;2023-05-24T12:15:09;7.43;;;3.42;;
77022;SDS011;65952;51.440;-2.054;2023-05-24T12:17:35;9.20;;;3.85;;
77022;SDS011;65952;51.440;-2.054;2023-05-24T12:20:02;6.60;;;3.65;;
77022;SDS011;65952;51.440;-2.054;2023-05-24T12:22:30;9.15;;;3.60;;
77022;SDS011;65952;51.440;-2.054;2023-05-24T12:24:56;6.32;;;3.40;;
77022;SDS011;65952;51.440;-2.054;2023-05-24T12:27:25;6.63;;;3.40;;
77022;SDS011;65952;51.440;-2.054;2023-05-24T12:29:51;9.35;;;3.50;;
77022;SDS011;65952;51.440;-2.054;2023-05-24T12:32:17;7.55;;;3.20;;
77022;SDS011;65952;51.440;-2.054;2023-05-24T12:34:43;9.52;;;3.50;;
77022;SDS011;65952;51.440;-2.054;2023-05-24T12:37:09;8.95;;;3.35;;
77022;SDS011;65952;51.440;-2.054;2023-05-24T12:39:36;11.10;;;4.13;;
77022;SDS011;65952;51.440;-2.054;2023-05-24T12:42:02;10.93;;;3.85;;
77022;SDS011;65952;51.440;-2.054;2023-05-24T12:44:32;7.82;;;3.40;;
77022;SDS011;65952;51.440;-2.054;2023-05-24T12:47:00;8.90;;;3.75;;
77022;SDS011;65952;51.440;-2.054;2023-05-24T12:49:27;9.63;;;4.03;;
77022;SDS011;65952;51.440;-2.054;2023-05-24T12:51:53;7.60;;;3.80;;
77022;SDS011;65952;51.440;-2.054;2023-05-24T12:54:24;8.15;;;3.75;;
77022;SDS011;65952;51.440;-2.054;2023-05-24T12:56:50;7.97;;;3.30;;
77022;SDS011;65952;51.440;-2.054;2023-05-24T12:59:17;7.97;;;3.78;;
77022;SDS011;65952;51.440;-2.054;2023-05-24T13:01:42;6.85;;;3.47;;
77022;SDS011;65952;51.440;-2.054;2023-05-24T13:04:10;9.55;;;3.40;;
77022;SDS011;65952;51.440;-2.054;2023-05-24T13:06:36;7.93;;;3.40;;
77022;SDS011;65952;51.440;-2.054;2023-05-24T13:09:02;6.57;;;3.28;;
77022;SDS011;65952;51.440;-2.054;2023-05-24T13:11:28;9.45;;;3.53;;
77022;SDS011;65952;51.440;-2.054;2023-05-24T13:13:55;8.00;;;3.42;;
77022;SDS011;65952;51.440;-2.054;2023-05-24T13:16:21;9.75;;;3.30;;
77022;SDS011;65952;51.440;-2.054;2023-05-24T13:18:47;8.00;;;3.55;;
77022;SDS011;65952;51.440;-2.054;2023-05-24T13:21:13;6.65;;;3.25;;
77022;SDS011;65952;51.440;-2.054;2023-05-24T13:23:38;6.53;;;3.25;;
77022;SDS011;65952;51.440;-2.054;2023-05-24T13:26:04;7.15;;;3.20;;
77022;SDS011;65952;51.440;-2.054;2023-05-24T13:28:31;8.43;;;3.20;;
77022;SDS011;65952;51.440;-2.054;2023-05-24T13:30:58;8.88;;;3.38;;
77022;SDS011;65952;51.440;-2.054;2023-05-24T13:33:23;8.73;;;3.50;;
77022;SDS011;65952;51.440;-2.054;2023-05-24T13:35:49;7.80;;;3.40;;
77022;SDS011;65952;51.440;-2.054;2023-05-24T13:38:14;9.68;;;3.50;;
77022;SDS011;65952;51.440;-2.054;2023-05-24T13:40:40;8.57;;;3.60;;
77022;SDS011;65952;51.440;-2.054;2023-05-24T13:43:06;7.57;;;3.60;;
77022;SDS011;65952;51.440;-2.054;2023-05-24T13:45:31;6.95;;;3.20;;
77022;SDS011;65952;51.440;-2.054;2023-05-24T13:47:57;7.30;;;3.30;;
77022;SDS011;65952;51.440;-2.054;2023-05-24T13:50:28;11.40;;;3.58;;
77022;SDS011;65952;51.440;-2.054;2023-05-24T13:52:57;7.93;;;3.40;;
77022;SDS011;65952;51.440;-2.054;2023-05-24T13:55:26;7.90;;;3.28;;
77022;SDS011;65952;51.440;-2.054;2023-05-24T13:57:52;7.63;;;3.00;;
77022;SDS011;65952;51.440;-2.054;2023-05-24T14:00:19;5.35;;;2.60;;
77022;SDS011;65952;51.440;-2.054;2023-05-24T14:02:46;13.50;;;3.60;;
77022;SDS011;65952;51.440;-2.054;2023-05-24T14:05:12;6.68;;;3.50;;
77022;SDS011;65952;51.440;-2.054;2023-05-24T14:07:37;7.75;;;3.47;;
77022;SDS011;65952;51.440;-2.054;2023-05-24T14:10:02;7.25;;;3.55;;
77022;SDS011;65952;51.440;-2.054;2023-05-24T14:12:28;7.95;;;3.30;;
77022;SDS011;65952;51.440;-2.054;2023-05-24T14:14:53;9.65;;;3.35;;
77022;SDS011;65952;51.440;-2.054;2023-05-24T14:17:19;8.80;;;3.50;;
77022;SDS011;65952;51.440;-2.054;2023-05-24T14:19:44;7.68;;;3.45;;
77022;SDS011;65952;51.440;-2.054;2023-05-24T14:22:09;8.70;;;3.75;;
77022;SDS011;65952;51.440;-2.054;2023-05-24T14:24:35;7.03;;;3.50;;
77022;SDS011;65952;51.440;-2.054;2023-05-24T14:27:00;10.95;;;3.63;;
77022;SDS011;65952;51.440;-2.054;2023-05-24T14:29:26;7.35;;;3.10;;
77022;SDS011;65952;51.440;-2.054;2023-05-24T14:31:51;9.77;;;3.45;;
77022;SDS011;65952;51.440;-2.054;2023-05-24T14:34:17;9.63;;;3.70;;
77022;SDS011;65952;51.440;-2.054;2023-05-24T14:36:42;7.70;;;3.78;;
77022;SDS011;65952;51.440;-2.054;2023-05-24T14:39:09;10.05;;;4.55;;
77022;SDS011;65952;51.440;-2.054;2023-05-24T14:41:35;6.90;;;3.72;;
77022;SDS011;65952;51.440;-2.054;2023-05-24T14:44:00;6.57;;;3.65;;
77022;SDS011;65952;51.440;-2.054;2023-05-24T14:46:26;8.05;;;3.55;;
77022;SDS011;65952;51.440;-2.054;2023-05-24T14:48:51;8.65;;;3.67;;
77022;SDS011;65952;51.440;-2.054;2023-05-24T14:51:17;7.75;;;3.88;;
77022;SDS011;65952;51.440;-2.054;2023-05-24T14:53:43;8.60;;;3.85;;
77022;SDS011;65952;51.440;-2.054;2023-05-24T14:56:09;10.35;;;4.10;;
77022;SDS011;65952;51.440;-2.054;2023-05-24T14:58:37;6.95;;;3.90;;
77022;SDS011;65952;51.440;-2.054;2023-05-24T15:01:03;6.68;;;3.72;;
77022;SDS011;65952;51.440;-2.054;2023-05-24T15:03:29;8.88;;;4.00;;